createdAt,value
2024-02-01T00:00:00.780Z,0.00
2024-02-01T00:01:00.692Z,0.00
2024-02-01T00:02:00.657Z,0.00
2024-02-01T00:03:00.746Z,0.00
2024-02-01T00:04:00.592Z,0.00
2024-02-01T00:05:00.653Z,0.00
2024-02-01T00:06:00.726Z,0.00
2024-02-01T00:07:00.695Z,0.00
2024-02-01T00:08:00.525Z,0.00
2024-02-01T00:09:00.516Z,0.00
2024-02-01T00:10:00.504Z,0.00
2024-02-01T00:11:00.508Z,0.00
2024-02-01T00:12:00.497Z,0.00
2024-02-01T00:13:00.465Z,0.00
2024-02-01T00:14:00.485Z,0.00
2024-02-01T00:15:00.565Z,0.00
2024-02-01T00:16:00.431Z,0.00
2024-02-01T00:17:00.421Z,0.00
2024-02-01T00:18:00.505Z,0.00
2024-02-01T00:19:00.514Z,0.00
2024-02-01T00:20:00.469Z,0.00
2024-02-01T00:21:00.406Z,0.00
2024-02-01T00:22:00.368Z,0.00
2024-02-01T00:23:00.364Z,0.00
2024-02-01T00:24:00.361Z,0.00
2024-02-01T00:25:00.326Z,0.00
2024-02-01T00:26:00.315Z,0.00
2024-02-01T00:27:00.319Z,0.00
2024-02-01T00:28:00.289Z,0.00
2024-02-01T00:29:00.288Z,0.00
2024-02-01T00:30:00.383Z,0.00
2024-02-01T00:31:00.267Z,0.00
2024-02-01T00:32:00.238Z,0.00
2024-02-01T00:33:00.498Z,0.00
2024-02-01T00:34:00.328Z,0.00
2024-02-01T00:35:00.381Z,0.00
2024-02-01T00:36:00.257Z,0.00
2024-02-01T00:37:00.203Z,0.00
2024-02-01T00:38:00.182Z,0.00
2024-02-01T00:39:00.199Z,0.00
2024-02-01T00:40:00.165Z,0.00
2024-02-01T00:41:00.140Z,0.00
2024-02-01T00:42:00.238Z,0.00
2024-02-01T00:43:00.116Z,0.00
2024-02-01T00:44:00.110Z,0.00
2024-02-01T00:45:00.189Z,0.00
2024-02-01T00:46:00.091Z,0.00
2024-02-01T00:47:00.071Z,0.00
2024-02-01T00:48:00.140Z,0.00
2024-02-01T00:49:00.123Z,0.00
2024-02-01T00:50:00.038Z,0.00
2024-02-01T00:51:00.082Z,0.00
2024-02-01T00:52:00.015Z,0.00
2024-02-01T00:52:59.991Z,0.00
2024-02-01T00:54:00.006Z,0.00
2024-02-01T00:54:59.971Z,0.00
2024-02-01T00:55:59.951Z,0.00
2024-02-01T00:57:00.004Z,0.00
2024-02-01T00:57:59.936Z,0.00
2024-02-01T00:58:59.931Z,0.00
2024-02-01T00:59:59.980Z,0.00
2024-02-01T01:01:00.178Z,0.00
2024-02-01T01:01:59.908Z,0.00
2024-02-01T01:02:59.913Z,0.00
2024-02-01T01:03:59.909Z,0.00
2024-02-01T01:04:59.877Z,0.00
2024-02-01T01:05:59.859Z,0.00
2024-02-01T01:06:59.834Z,0.00
2024-02-01T01:07:59.868Z,0.00
2024-02-01T01:08:59.871Z,0.00
2024-02-01T01:09:59.791Z,0.00
2024-02-01T01:10:59.781Z,0.00
2024-02-01T01:11:59.822Z,0.00
2024-02-01T01:12:59.761Z,0.00
2024-02-01T01:13:59.741Z,0.00
2024-02-01T01:14:59.762Z,0.00
2024-02-01T01:15:59.718Z,0.00
2024-02-01T01:16:59.709Z,0.00
2024-02-01T01:17:59.780Z,0.00
2024-02-01T01:18:59.938Z,0.00
2024-02-01T01:19:59.691Z,0.00
2024-02-01T01:20:59.703Z,0.00
2024-02-01T01:21:59.765Z,0.00
2024-02-01T01:22:59.645Z,0.00
2024-02-01T01:23:59.669Z,0.00
2024-02-01T01:24:59.615Z,0.00
2024-02-01T01:25:59.605Z,0.00
2024-02-01T01:26:59.604Z,0.00
2024-02-01T01:27:59.582Z,0.00
2024-02-01T01:28:59.577Z,0.00
2024-02-01T01:29:59.575Z,0.00
2024-02-01T01:30:59.541Z,0.00
2024-02-01T01:31:59.530Z,0.00
2024-02-01T01:32:59.586Z,0.00
2024-02-01T01:33:59.688Z,0.00
2024-02-01T01:34:59.536Z,0.00
2024-02-01T01:35:59.538Z,0.00
2024-02-01T01:36:59.470Z,0.00
2024-02-01T01:37:59.458Z,0.00
2024-02-01T01:38:59.475Z,0.00
2024-02-01T01:39:59.439Z,0.00
2024-02-01T01:40:59.426Z,0.00
2024-02-01T01:41:59.427Z,0.00
2024-02-01T01:42:59.403Z,0.00
2024-02-01T01:43:59.390Z,0.00
2024-02-01T01:44:59.414Z,0.00
2024-02-01T01:45:59.365Z,0.00
2024-02-01T01:46:59.349Z,0.00
2024-02-01T01:47:59.380Z,0.00
2024-02-01T01:48:59.461Z,0.00
2024-02-01T01:49:59.349Z,0.00
2024-02-01T01:50:59.344Z,0.00
2024-02-01T01:51:59.296Z,0.00
2024-02-01T01:52:59.290Z,0.00
2024-02-01T01:53:59.316Z,0.00
2024-02-01T01:54:59.259Z,0.00
2024-02-01T01:55:59.243Z,0.00
2024-02-01T01:56:59.256Z,0.00
2024-02-01T01:57:59.228Z,0.00
2024-02-01T01:58:59.227Z,0.00
2024-02-01T01:59:59.300Z,0.00
2024-02-01T02:00:59.290Z,0.00
2024-02-01T02:01:59.178Z,0.00
2024-02-01T02:03:00.494Z,0.00
2024-02-01T02:03:59.187Z,0.00
2024-02-01T02:04:59.158Z,0.00
2024-02-01T02:05:59.219Z,0.00
2024-02-01T02:06:59.149Z,0.00
2024-02-01T02:07:59.109Z,0.00
2024-02-01T02:08:59.138Z,0.00
2024-02-01T02:09:59.095Z,0.00
2024-02-01T02:10:59.069Z,0.00
2024-02-01T02:11:59.069Z,0.00
2024-02-01T02:12:59.045Z,0.00
2024-02-01T02:13:59.036Z,0.00
2024-02-01T02:14:59.098Z,0.00
2024-02-01T02:15:59.045Z,0.00
2024-02-01T02:16:59.093Z,0.00
2024-02-01T02:17:59.073Z,0.00
2024-02-01T02:18:59.093Z,0.00
2024-02-01T02:19:58.974Z,0.00
2024-02-01T02:20:59.001Z,0.00
2024-02-01T02:21:58.939Z,0.00
2024-02-01T02:22:58.938Z,0.00
2024-02-01T02:23:58.979Z,0.00
2024-02-01T02:24:58.903Z,0.00
2024-02-01T02:25:58.895Z,0.00
2024-02-01T02:26:58.905Z,0.00
2024-02-01T02:27:58.869Z,0.00
2024-02-01T02:28:58.855Z,0.00
2024-02-01T02:29:58.958Z,0.00
2024-02-01T02:30:58.848Z,0.00
2024-02-01T02:31:58.835Z,0.00
2024-02-01T02:32:58.946Z,0.00
2024-02-01T02:33:58.929Z,0.00
2024-02-01T02:34:58.785Z,0.00
2024-02-01T02:35:58.816Z,0.00
2024-02-01T02:36:58.756Z,0.00
2024-02-01T02:37:58.750Z,0.00
2024-02-01T02:38:58.779Z,0.00
2024-02-01T02:39:58.731Z,0.00
2024-02-01T02:40:58.712Z,0.00
2024-02-01T02:41:58.730Z,0.00
2024-02-01T02:42:58.693Z,0.00
2024-02-01T02:43:58.684Z,0.00
2024-02-01T02:44:58.707Z,0.00
2024-02-01T02:45:58.655Z,0.00
2024-02-01T02:46:58.647Z,0.00
2024-02-01T02:47:58.863Z,0.00
2024-02-01T02:48:58.784Z,0.00
2024-02-01T02:49:58.608Z,0.00
2024-02-01T02:50:58.642Z,0.00
2024-02-01T02:51:58.586Z,0.00
2024-02-01T02:52:58.572Z,0.00
2024-02-01T02:53:58.584Z,0.00
2024-02-01T02:54:58.546Z,0.00
2024-02-01T02:55:58.534Z,0.00
2024-02-01T02:56:58.592Z,0.00
2024-02-01T02:57:58.525Z,0.00
2024-02-01T02:58:58.504Z,0.00
2024-02-01T02:59:58.516Z,0.00
2024-02-01T03:00:58.525Z,0.00
2024-02-01T03:01:58.468Z,0.00
2024-02-01T03:02:58.489Z,0.00
2024-02-01T03:03:58.466Z,0.00
2024-02-01T03:04:58.425Z,0.00
2024-02-01T03:05:58.500Z,0.00
2024-02-01T03:06:58.412Z,0.00
2024-02-01T03:07:58.390Z,0.00
2024-02-01T03:08:58.406Z,0.00
2024-02-01T03:09:58.365Z,0.00
2024-02-01T03:10:58.358Z,0.00
2024-02-01T03:11:58.373Z,0.00
2024-02-01T03:12:58.329Z,0.00
2024-02-01T03:13:58.326Z,0.00
2024-02-01T03:14:58.324Z,0.00
2024-02-01T03:15:58.295Z,0.00
2024-02-01T03:16:58.290Z,0.00
2024-02-01T03:17:58.322Z,0.00
2024-02-01T03:18:58.361Z,0.00
2024-02-01T03:19:58.302Z,0.00
2024-02-01T03:20:58.264Z,0.00
2024-02-01T03:21:58.226Z,0.00
2024-02-01T03:22:58.218Z,0.00
2024-02-01T03:23:58.267Z,0.00
2024-02-01T03:24:58.189Z,0.00
2024-02-01T03:25:58.178Z,0.00
2024-02-01T03:26:58.169Z,0.00
2024-02-01T03:27:58.181Z,0.00
2024-02-01T03:28:58.140Z,0.00
2024-02-01T03:29:58.154Z,0.00
2024-02-01T03:30:58.133Z,0.00
2024-02-01T03:31:58.113Z,0.00
2024-02-01T03:32:58.155Z,0.00
2024-02-01T03:33:58.234Z,0.00
2024-02-01T03:34:58.124Z,0.00
2024-02-01T03:35:58.109Z,0.00
2024-02-01T03:36:58.046Z,0.00
2024-02-01T03:37:58.043Z,0.00
2024-02-01T03:38:58.032Z,0.00
2024-02-01T03:39:58.006Z,0.00
2024-02-01T03:40:58.002Z,0.00
2024-02-01T03:41:58.014Z,0.00
2024-02-01T03:42:57.990Z,0.00
2024-02-01T03:43:57.985Z,0.00
2024-02-01T03:44:58.015Z,0.00
2024-02-01T03:45:57.944Z,0.00
2024-02-01T03:46:57.932Z,0.00
2024-02-01T03:47:58.084Z,0.00
2024-02-01T03:48:58.057Z,0.00
2024-02-01T03:49:57.936Z,0.00
2024-02-01T03:50:57.914Z,0.00
2024-02-01T03:51:57.871Z,0.00
2024-02-01T03:52:57.856Z,0.00
2024-02-01T03:53:57.920Z,0.00
2024-02-01T03:54:57.834Z,0.00
2024-02-01T03:55:57.828Z,0.00
2024-02-01T03:56:57.814Z,0.00
2024-02-01T03:57:57.795Z,0.00
2024-02-01T03:58:57.814Z,0.00
2024-02-01T03:59:57.826Z,0.00
2024-02-01T04:00:58.079Z,0.00
2024-02-01T04:01:57.754Z,0.00
2024-02-01T04:02:57.763Z,0.00
2024-02-01T04:03:57.767Z,0.00
2024-02-01T04:04:57.714Z,0.00
2024-02-01T04:05:57.709Z,0.00
2024-02-01T04:06:57.819Z,0.00
2024-02-01T04:07:57.686Z,0.00
2024-02-01T04:08:57.682Z,0.00
2024-02-01T04:09:57.653Z,0.00
2024-02-01T04:10:57.641Z,0.00
2024-02-01T04:11:57.653Z,0.00
2024-02-01T04:12:57.616Z,0.00
2024-02-01T04:13:57.608Z,0.00
2024-02-01T04:14:57.605Z,0.00
2024-02-01T04:15:57.581Z,0.00
2024-02-01T04:16:57.571Z,0.00
2024-02-01T04:17:57.627Z,0.00
2024-02-01T04:18:57.692Z,0.00
2024-02-01T04:19:57.582Z,0.00
2024-02-01T04:20:57.575Z,0.00
2024-02-01T04:21:57.518Z,0.00
2024-02-01T04:22:57.520Z,0.00
2024-02-01T04:23:57.494Z,0.00
2024-02-01T04:24:57.474Z,0.00
2024-02-01T04:25:57.458Z,0.00
2024-02-01T04:26:58.229Z,0.00
2024-02-01T04:27:57.516Z,0.00
2024-02-01T04:28:57.422Z,0.00
2024-02-01T04:29:57.434Z,0.00
2024-02-01T04:30:57.398Z,0.00
2024-02-01T04:31:57.394Z,0.00
2024-02-01T04:32:57.463Z,0.00
2024-02-01T04:33:57.431Z,0.00
2024-02-01T04:34:57.397Z,0.00
2024-02-01T04:35:57.338Z,0.00
2024-02-01T04:36:57.341Z,0.00
2024-02-01T04:37:57.619Z,0.00
2024-02-01T04:38:57.426Z,0.00
2024-02-01T04:39:57.306Z,0.00
2024-02-01T04:40:57.281Z,0.00
2024-02-01T04:41:57.357Z,0.00
2024-02-01T04:42:57.251Z,0.00
2024-02-01T04:43:57.243Z,0.00
2024-02-01T04:44:57.308Z,0.00
2024-02-01T04:45:57.225Z,0.00
2024-02-01T04:46:57.205Z,0.00
2024-02-01T04:47:57.251Z,0.00
2024-02-01T04:48:57.262Z,0.00
2024-02-01T04:49:57.203Z,0.00
2024-02-01T04:50:57.187Z,0.00
2024-02-01T04:51:57.143Z,0.00
2024-02-01T04:52:57.130Z,0.00
2024-02-01T04:53:57.178Z,0.00
2024-02-01T04:54:57.115Z,0.00
2024-02-01T04:55:57.096Z,0.00
2024-02-01T04:56:57.102Z,0.00
2024-02-01T04:57:57.075Z,0.00
2024-02-01T04:58:57.058Z,0.00
2024-02-01T04:59:57.064Z,0.00
2024-02-01T05:00:57.112Z,0.00
2024-02-01T05:01:57.080Z,0.00
2024-02-01T05:02:57.075Z,0.00
2024-02-01T05:03:57.065Z,0.00
2024-02-01T05:04:57.030Z,0.00
2024-02-01T05:05:57.042Z,0.00
2024-02-01T05:06:57.057Z,0.00
2024-02-01T05:07:56.950Z,0.00
2024-02-01T05:08:56.979Z,0.00
2024-02-01T05:09:56.935Z,0.00
2024-02-01T05:10:56.916Z,0.00
2024-02-01T05:11:56.966Z,0.00
2024-02-01T05:12:56.892Z,0.00
2024-02-01T05:13:56.879Z,0.00
2024-02-01T05:14:56.893Z,0.00
2024-02-01T05:15:56.855Z,0.00
2024-02-01T05:16:56.853Z,0.00
2024-02-01T05:17:56.935Z,0.00
2024-02-01T05:18:56.906Z,0.00
2024-02-01T05:19:56.851Z,0.00
2024-02-01T05:20:56.845Z,0.00
2024-02-01T05:21:56.778Z,0.00
2024-02-01T05:22:56.766Z,0.00
2024-02-01T05:23:56.799Z,0.00
2024-02-01T05:24:56.764Z,0.00
2024-02-01T05:25:56.740Z,0.00
2024-02-01T05:26:56.793Z,0.00
2024-02-01T05:27:56.717Z,0.00
2024-02-01T05:28:56.698Z,0.00
2024-02-01T05:29:56.713Z,0.00
2024-02-01T05:30:56.676Z,0.00
2024-02-01T05:31:56.699Z,0.00
2024-02-01T05:32:57.331Z,0.00
2024-02-01T05:33:56.855Z,0.00
2024-02-01T05:34:56.633Z,0.00
2024-02-01T05:35:56.637Z,0.00
2024-02-01T05:36:56.606Z,0.00
2024-02-01T05:37:56.593Z,0.00
2024-02-01T05:38:56.617Z,0.00
2024-02-01T05:39:56.577Z,0.00
2024-02-01T05:40:56.558Z,0.00
2024-02-01T05:41:56.586Z,0.00
2024-02-01T05:42:56.554Z,0.00
2024-02-01T05:43:56.524Z,0.00
2024-02-01T05:44:56.537Z,0.00
2024-02-01T05:45:56.503Z,0.00
2024-02-01T05:46:56.500Z,0.00
2024-02-01T05:47:56.637Z,0.00
2024-02-01T05:48:57.835Z,0.00
2024-02-01T05:49:56.687Z,0.00
2024-02-01T05:50:56.460Z,0.00
2024-02-01T05:51:56.425Z,0.00
2024-02-01T05:52:56.413Z,0.00
2024-02-01T05:53:56.461Z,0.00
2024-02-01T05:54:56.395Z,0.00
2024-02-01T05:55:56.381Z,0.00
2024-02-01T05:56:56.399Z,0.00
2024-02-01T05:57:56.371Z,0.00
2024-02-01T05:58:56.365Z,0.00
2024-02-01T05:59:56.395Z,0.00
2024-02-01T06:00:56.370Z,0.00
2024-02-01T06:01:56.310Z,0.00
2024-02-01T06:02:56.320Z,0.00
2024-02-01T06:03:56.279Z,0.00
2024-02-01T06:04:56.298Z,0.00
2024-02-01T06:05:56.313Z,0.00
2024-02-01T06:06:56.405Z,0.00
2024-02-01T06:07:56.231Z,0.00
2024-02-01T06:08:56.253Z,0.00
2024-02-01T06:09:56.219Z,0.00
2024-02-01T06:10:56.202Z,0.00
2024-02-01T06:11:56.213Z,0.00
2024-02-01T06:12:56.172Z,0.00
2024-02-01T06:13:56.160Z,0.00
2024-02-01T06:14:56.167Z,0.00
2024-02-01T06:15:56.139Z,0.00
2024-02-01T06:16:56.128Z,0.00
2024-02-01T06:17:56.166Z,0.00
2024-02-01T06:18:56.197Z,0.00
2024-02-01T06:19:56.147Z,0.00
2024-02-01T06:20:56.108Z,0.00
2024-02-01T06:21:56.093Z,0.00
2024-02-01T06:22:56.074Z,0.00
2024-02-01T06:23:56.093Z,0.00
2024-02-01T06:24:56.043Z,0.00
2024-02-01T06:25:56.014Z,0.00
2024-02-01T06:26:56.067Z,4.00
2024-02-01T06:27:56.998Z,0.00
2024-02-01T06:28:55.979Z,4.00
2024-02-01T06:29:56.037Z,4.00
2024-02-01T06:30:56.003Z,0.00
2024-02-01T06:31:55.946Z,8.00
2024-02-01T06:32:56.202Z,8.00
2024-02-01T06:33:56.038Z,8.00
2024-02-01T06:34:56.105Z,12.00
2024-02-01T06:35:56.038Z,8.00
2024-02-01T06:36:55.917Z,8.00
2024-02-01T06:37:55.933Z,16.00
2024-02-01T06:38:55.938Z,8.00
2024-02-01T06:39:55.877Z,12.00
2024-02-01T06:40:55.930Z,12.00
2024-02-01T06:41:55.861Z,16.00
2024-02-01T06:42:55.839Z,16.00
2024-02-01T06:43:55.996Z,24.00
2024-02-01T06:44:55.835Z,28.00
2024-02-01T06:45:55.821Z,24.00
2024-02-01T06:46:55.781Z,28.00
2024-02-01T06:47:55.839Z,36.00
2024-02-01T06:48:55.959Z,32.00
2024-02-01T06:49:55.809Z,36.00
2024-02-01T06:50:57.258Z,52.00
2024-02-01T06:51:55.725Z,60.00
2024-02-01T06:52:55.721Z,76.00
2024-02-01T06:53:55.871Z,60.00
2024-02-01T06:54:56.199Z,76.00
2024-02-01T06:55:55.752Z,92.00
2024-02-01T06:56:55.710Z,52.00
2024-02-01T06:57:55.661Z,72.00
2024-02-01T06:58:55.647Z,64.00
2024-02-01T06:59:55.740Z,80.00
2024-02-01T07:00:56.357Z,72.00
2024-02-01T07:01:55.607Z,88.00
2024-02-01T07:02:55.614Z,84.00
2024-02-01T07:03:55.661Z,104.00
2024-02-01T07:04:55.574Z,112.00
2024-02-01T07:05:55.638Z,156.00
2024-02-01T07:06:55.587Z,148.00
2024-02-01T07:07:55.537Z,164.00
2024-02-01T07:08:55.554Z,220.00
2024-02-01T07:09:55.514Z,248.00
2024-02-01T07:10:55.520Z,288.00
2024-02-01T07:11:55.544Z,268.00
2024-02-01T07:12:55.498Z,300.00
2024-02-01T07:13:56.210Z,284.00
2024-02-01T07:14:55.493Z,344.00
2024-02-01T07:15:55.659Z,376.00
2024-02-01T07:16:55.505Z,408.00
2024-02-01T07:17:55.466Z,456.00
2024-02-01T07:18:55.512Z,516.00
2024-02-01T07:19:55.493Z,616.00
2024-02-01T07:20:56.114Z,560.00
2024-02-01T07:21:55.366Z,584.00
2024-02-01T07:22:55.395Z,556.00
2024-02-01T07:23:55.376Z,584.00
2024-02-01T07:24:55.335Z,648.00
2024-02-01T07:25:55.322Z,624.00
2024-02-01T07:26:55.363Z,592.00
2024-02-01T07:27:55.305Z,720.00
2024-02-01T07:28:55.293Z,832.00
2024-02-01T07:29:55.341Z,760.00
2024-02-01T07:30:55.269Z,696.00
2024-02-01T07:31:55.263Z,696.00
2024-02-01T07:32:55.406Z,692.00
2024-02-01T07:33:55.348Z,784.00
2024-02-01T07:34:55.254Z,812.00
2024-02-01T07:35:55.302Z,724.00
2024-02-01T07:36:55.196Z,676.00
2024-02-01T07:37:55.193Z,628.00
2024-02-01T07:38:55.714Z,632.00
2024-02-01T07:39:55.177Z,764.00
2024-02-01T07:40:55.195Z,764.00
2024-02-01T07:41:55.178Z,776.00
2024-02-01T07:42:55.134Z,764.00
2024-02-01T07:43:55.117Z,940.00
2024-02-01T07:44:55.152Z,852.00
2024-02-01T07:45:55.111Z,928.00
2024-02-01T07:46:55.086Z,1004.00
2024-02-01T07:47:55.171Z,1004.00
2024-02-01T07:48:55.156Z,1076.00
2024-02-01T07:49:55.299Z,1084.00
2024-02-01T07:50:55.046Z,1740.00
2024-02-01T07:51:55.016Z,1012.00
2024-02-01T07:52:55.008Z,1024.00
2024-02-01T07:53:55.040Z,1188.00
2024-02-01T07:54:54.988Z,1296.00
2024-02-01T07:55:55.004Z,1436.00
2024-02-01T07:56:55.007Z,1408.00
2024-02-01T07:57:54.951Z,1660.00
2024-02-01T07:58:54.963Z,1892.00
2024-02-01T07:59:54.976Z,1632.00
2024-02-01T08:00:54.929Z,1404.00
2024-02-01T08:01:54.903Z,1764.00
2024-02-01T08:02:54.922Z,2012.00
2024-02-01T08:03:54.992Z,1720.00
2024-02-01T08:04:54.868Z,1988.00
2024-02-01T08:05:54.936Z,1548.00
2024-02-01T08:06:54.907Z,1376.00
2024-02-01T08:07:55.705Z,1776.00
2024-02-01T08:08:54.895Z,1368.00
2024-02-01T08:09:56.167Z,1296.00
2024-02-01T08:10:54.796Z,1612.00
2024-02-01T08:11:54.830Z,1740.00
2024-02-01T08:12:54.775Z,2024.00
2024-02-01T08:13:54.802Z,1872.00
2024-02-01T08:14:54.791Z,1916.00
2024-02-01T08:15:54.749Z,2248.00
2024-02-01T08:16:54.743Z,1704.00
2024-02-01T08:17:54.849Z,2024.00
2024-02-01T08:18:54.851Z,2436.00
2024-02-01T08:19:54.711Z,1644.00
2024-02-01T08:20:54.921Z,1528.00
2024-02-01T08:21:54.691Z,1560.00
2024-02-01T08:22:54.669Z,1600.00
2024-02-01T08:23:54.686Z,1664.00
2024-02-01T08:24:54.647Z,1724.00
2024-02-01T08:25:54.631Z,2468.00
2024-02-01T08:26:54.669Z,1928.00
2024-02-01T08:27:55.394Z,1696.00
2024-02-01T08:28:54.897Z,1652.00
2024-02-01T08:29:54.645Z,1540.00
2024-02-01T08:30:54.580Z,1552.00
2024-02-01T08:31:54.574Z,1632.00
2024-02-01T08:32:54.723Z,1664.00
2024-02-01T08:33:54.686Z,1676.00
2024-02-01T08:34:54.543Z,1644.00
2024-02-01T08:35:54.557Z,1676.00
2024-02-01T08:36:54.501Z,1740.00
2024-02-01T08:37:54.506Z,1756.00
2024-02-01T08:38:54.530Z,1708.00
2024-02-01T08:39:54.467Z,1716.00
2024-02-01T08:40:54.467Z,1740.00
2024-02-01T08:41:54.499Z,1728.00
2024-02-01T08:42:54.431Z,1728.00
2024-02-01T08:43:54.426Z,1728.00
2024-02-01T08:44:54.458Z,1748.00
2024-02-01T08:45:54.397Z,1856.00
2024-02-01T08:46:54.392Z,1920.00
2024-02-01T08:47:54.460Z,1888.00
2024-02-01T08:48:54.526Z,2260.00
2024-02-01T08:49:54.375Z,2520.00
2024-02-01T08:50:54.382Z,2720.00
2024-02-01T08:51:54.322Z,3260.00
2024-02-01T08:52:54.323Z,3364.00
2024-02-01T08:53:54.377Z,2512.00
2024-02-01T08:54:54.366Z,3320.00
2024-02-01T08:55:54.381Z,2224.00
2024-02-01T08:56:54.284Z,3480.00
2024-02-01T08:57:54.259Z,2304.00
2024-02-01T08:58:54.247Z,1972.00
2024-02-01T08:59:54.291Z,2524.00
2024-02-01T09:00:54.262Z,2716.00
2024-02-01T09:01:54.208Z,2240.00
2024-02-01T09:02:54.210Z,2680.00
2024-02-01T09:03:54.196Z,2284.00
2024-02-01T09:04:54.340Z,3252.00
2024-02-01T09:05:54.253Z,2636.00
2024-02-01T09:06:54.310Z,2008.00
2024-02-01T09:07:54.190Z,2200.00
2024-02-01T09:08:54.137Z,2132.00
2024-02-01T09:09:54.124Z,2496.00
2024-02-01T09:10:54.109Z,2272.00
2024-02-01T09:11:54.121Z,2028.00
2024-02-01T09:12:54.089Z,2308.00
2024-02-01T09:13:54.484Z,2504.00
2024-02-01T09:14:54.126Z,2236.00
2024-02-01T09:15:55.029Z,1984.00
2024-02-01T09:16:54.059Z,2604.00
2024-02-01T09:17:54.146Z,1992.00
2024-02-01T09:18:54.072Z,2608.00
2024-02-01T09:19:54.106Z,4188.00
2024-02-01T09:20:54.046Z,2736.00
2024-02-01T09:21:53.997Z,2280.00
2024-02-01T09:22:54.729Z,3252.00
2024-02-01T09:23:54.078Z,2328.00
2024-02-01T09:24:53.963Z,3200.00
2024-02-01T09:25:53.949Z,2496.00
2024-02-01T09:26:53.988Z,2236.00
2024-02-01T09:27:53.953Z,3444.00
2024-02-01T09:28:53.924Z,2984.00
2024-02-01T09:29:53.995Z,3844.00
2024-02-01T09:30:53.897Z,2980.00
2024-02-01T09:31:53.944Z,3228.00
2024-02-01T09:32:53.928Z,2856.00
2024-02-01T09:33:54.064Z,1948.00
2024-02-01T09:34:53.945Z,1812.00
2024-02-01T09:35:53.923Z,2012.00
2024-02-01T09:36:53.910Z,1964.00
2024-02-01T09:37:53.823Z,2732.00
2024-02-01T09:38:53.842Z,2916.00
2024-02-01T09:39:53.812Z,1976.00
2024-02-01T09:40:53.783Z,2348.00
2024-02-01T09:41:53.866Z,3112.00
2024-02-01T09:42:53.759Z,2796.00
2024-02-01T09:43:53.763Z,2516.00
2024-02-01T09:44:53.771Z,3188.00
2024-02-01T09:45:53.724Z,2696.00
2024-02-01T09:46:53.709Z,2164.00
2024-02-01T09:47:53.744Z,1812.00
2024-02-01T09:48:53.832Z,1768.00
2024-02-01T09:49:53.725Z,1740.00
2024-02-01T09:50:53.732Z,2176.00
2024-02-01T09:51:53.682Z,2464.00
2024-02-01T09:52:53.646Z,1972.00
2024-02-01T09:53:53.698Z,1936.00
2024-02-01T09:54:53.687Z,2164.00
2024-02-01T09:55:53.618Z,2280.00
2024-02-01T09:56:53.654Z,2724.00
2024-02-01T09:57:53.798Z,4056.00
2024-02-01T09:58:53.588Z,3076.00
2024-02-01T09:59:53.617Z,2872.00
2024-02-01T10:00:53.573Z,2616.00
2024-02-01T10:01:53.550Z,2684.00
2024-02-01T10:02:53.740Z,2672.00
2024-02-01T10:03:53.716Z,3468.00
2024-02-01T10:04:53.547Z,3596.00
2024-02-01T10:05:53.986Z,3084.00
2024-02-01T10:06:53.662Z,2580.00
2024-02-01T10:07:53.478Z,2596.00
2024-02-01T10:08:53.582Z,2464.00
2024-02-01T10:09:53.617Z,2712.00
2024-02-01T10:10:53.524Z,2756.00
2024-02-01T10:11:53.648Z,2468.00
2024-02-01T10:12:54.360Z,2916.00
2024-02-01T10:13:53.640Z,4028.00
2024-02-01T10:14:53.439Z,4336.00
2024-02-01T10:15:53.460Z,3192.00
2024-02-01T10:16:53.399Z,3132.00
2024-02-01T10:17:53.572Z,4500.00
2024-02-01T10:18:53.407Z,4684.00
2024-02-01T10:19:53.499Z,4240.00
2024-02-01T10:20:53.356Z,2744.00
2024-02-01T10:21:57.667Z,2196.00
2024-02-01T10:22:53.323Z,2604.00
2024-02-01T10:23:53.392Z,2420.00
2024-02-01T10:24:53.383Z,2076.00
2024-02-01T10:25:53.353Z,2440.00
2024-02-01T10:26:53.321Z,2020.00
2024-02-01T10:27:53.336Z,1848.00
2024-02-01T10:28:53.344Z,1816.00
2024-02-01T10:29:53.361Z,1968.00
2024-02-01T10:30:53.303Z,1952.00
2024-02-01T10:31:53.221Z,1936.00
2024-02-01T10:32:53.252Z,2156.00
2024-02-01T10:33:53.264Z,2480.00
2024-02-01T10:34:53.202Z,2412.00
2024-02-01T10:35:53.340Z,2800.00
2024-02-01T10:36:53.171Z,3744.00
2024-02-01T10:37:53.168Z,3552.00
2024-02-01T10:38:53.182Z,3468.00
2024-02-01T10:39:53.130Z,3772.00
2024-02-01T10:40:53.127Z,3444.00
2024-02-01T10:41:53.173Z,4148.00
2024-02-01T10:42:53.112Z,3828.00
2024-02-01T10:43:53.092Z,4304.00
2024-02-01T10:44:53.155Z,4396.00
2024-02-01T10:45:53.071Z,4808.00
2024-02-01T10:46:53.059Z,4368.00
2024-02-01T10:47:53.089Z,4832.00
2024-02-01T10:48:53.126Z,4372.00
2024-02-01T10:49:53.028Z,3752.00
2024-02-01T10:50:53.028Z,3448.00
2024-02-01T10:51:52.996Z,3556.00
2024-02-01T10:52:53.011Z,3428.00
2024-02-01T10:53:53.008Z,3132.00
2024-02-01T10:54:52.968Z,2356.00
2024-02-01T10:55:52.969Z,2412.00
2024-02-01T10:56:52.966Z,2576.00
2024-02-01T10:57:52.937Z,2312.00
2024-02-01T10:58:52.922Z,2496.00
2024-02-01T10:59:52.965Z,2420.00
2024-02-01T11:00:55.455Z,2036.00
2024-02-01T11:01:52.892Z,2380.00
2024-02-01T11:02:52.990Z,2212.00
2024-02-01T11:03:52.941Z,1904.00
2024-02-01T11:04:52.873Z,1884.00
2024-02-01T11:05:52.890Z,1824.00
2024-02-01T11:06:52.901Z,1688.00
2024-02-01T11:07:52.854Z,1812.00
2024-02-01T11:08:52.987Z,1812.00
2024-02-01T11:09:52.889Z,1812.00
2024-02-01T11:10:52.796Z,1836.00
2024-02-01T11:11:52.881Z,1896.00
2024-02-01T11:12:52.779Z,1956.00
2024-02-01T11:13:52.755Z,1984.00
2024-02-01T11:14:52.802Z,2084.00
2024-02-01T11:15:52.739Z,2364.00
2024-02-01T11:16:52.736Z,2668.00
2024-02-01T11:17:52.861Z,3048.00
2024-02-01T11:18:52.809Z,2484.00
2024-02-01T11:19:53.280Z,2336.00
2024-02-01T11:20:52.732Z,2828.00
2024-02-01T11:21:52.916Z,2532.00
2024-02-01T11:22:52.656Z,2152.00
2024-02-01T11:23:53.297Z,2384.00
2024-02-01T11:24:52.663Z,2168.00
2024-02-01T11:25:53.253Z,2092.00
2024-02-01T11:26:52.623Z,2240.00
2024-02-01T11:27:52.632Z,1848.00
2024-02-01T11:28:52.597Z,1780.00
2024-02-01T11:29:55.535Z,1696.00
2024-02-01T11:30:58.573Z,1640.00
2024-02-01T11:31:52.766Z,1664.00
2024-02-01T11:32:52.944Z,1936.00
2024-02-01T11:33:52.652Z,1960.00
2024-02-01T11:34:52.564Z,1944.00
2024-02-01T11:35:52.609Z,2036.00
2024-02-01T11:36:52.528Z,2024.00
2024-02-01T11:37:52.500Z,1968.00
2024-02-01T11:38:52.535Z,1764.00
2024-02-01T11:39:52.477Z,1964.00
2024-02-01T11:40:52.476Z,1908.00
2024-02-01T11:41:52.497Z,2016.00
2024-02-01T11:42:52.496Z,2072.00
2024-02-01T11:43:52.453Z,2184.00
2024-02-01T11:44:52.416Z,2228.00
2024-02-01T11:45:52.406Z,2272.00
2024-02-01T11:46:53.280Z,2256.00
2024-02-01T11:47:52.449Z,2516.00
2024-02-01T11:48:52.532Z,3356.00
2024-02-01T11:49:52.499Z,3124.00
2024-02-01T11:50:52.399Z,2704.00
2024-02-01T11:51:52.334Z,2468.00
2024-02-01T11:52:52.327Z,2960.00
2024-02-01T11:53:52.339Z,3932.00
2024-02-01T11:54:52.327Z,3404.00
2024-02-01T11:55:52.298Z,2620.00
2024-02-01T11:56:52.276Z,2992.00
2024-02-01T11:57:52.274Z,2164.00
2024-02-01T11:58:52.280Z,2048.00
2024-02-01T11:59:52.263Z,2056.00
2024-02-01T12:01:02.558Z,2424.00
2024-02-01T12:01:52.290Z,2400.00
2024-02-01T12:02:52.227Z,2356.00
2024-02-01T12:03:52.200Z,2368.00
2024-02-01T12:04:52.226Z,1844.00
2024-02-01T12:05:52.247Z,1960.00
2024-02-01T12:06:52.206Z,1624.00
2024-02-01T12:07:52.169Z,1900.00
2024-02-01T12:08:52.172Z,1896.00
2024-02-01T12:09:52.230Z,1888.00
2024-02-01T12:10:52.132Z,1864.00
2024-02-01T12:11:52.128Z,1868.00
2024-02-01T12:12:52.107Z,1604.00
2024-02-01T12:13:52.100Z,1884.00
2024-02-01T12:14:52.103Z,1888.00
2024-02-01T12:15:52.074Z,1896.00
2024-02-01T12:16:52.067Z,1920.00
2024-02-01T12:17:52.126Z,1928.00
2024-02-01T12:18:52.196Z,1936.00
2024-02-01T12:19:54.480Z,1932.00
2024-02-01T12:20:52.114Z,1892.00
2024-02-01T12:21:52.065Z,1848.00
2024-02-01T12:22:51.996Z,1612.00
2024-02-01T12:23:52.033Z,1608.00
2024-02-01T12:24:51.994Z,1628.00
2024-02-01T12:25:51.969Z,1900.00
2024-02-01T12:26:51.966Z,1672.00
2024-02-01T12:27:51.944Z,1864.00
2024-02-01T12:28:51.935Z,1828.00
2024-02-01T12:29:51.970Z,1820.00
2024-02-01T12:30:51.941Z,1796.00
2024-02-01T12:31:51.912Z,1780.00
2024-02-01T12:32:51.988Z,1776.00
2024-02-01T12:33:52.000Z,1764.00
2024-02-01T12:34:51.885Z,1760.00
2024-02-01T12:35:51.886Z,1756.00
2024-02-01T12:36:51.845Z,1776.00
2024-02-01T12:37:51.858Z,1820.00
2024-02-01T12:38:51.837Z,1844.00
2024-02-01T12:39:51.813Z,1940.00
2024-02-01T12:40:51.797Z,1924.00
2024-02-01T12:41:51.805Z,1944.00
2024-02-01T12:42:51.788Z,1900.00
2024-02-01T12:43:51.775Z,1940.00